Time;durP1;ratioP1;P1;durP2;ratioP2;P2;SDS_P1;SDS_P2;PMS_P1;PMS_P2;Temp;Humidity;BMP_temperature;BMP_pressure;BME280_temperature;BME280_humidity;BME280_pressure;Samples;Min_cycle;Max_cycle;Signal;HPM_P1;HPM_P2
2022/06/14 00:02:59;;;;;;;2.38;1.17;;;24.30;41.90;;;28.19;27.26;101906.25;5114454;28;20109;-12
2022/06/14 00:05:25;;;;;;;2.50;1.10;;;24.30;41.90;;;28.23;27.38;101915.78;5114337;28;20051;-13
2022/06/14 00:07:51;;;;;;;1.27;0.80;;;24.30;41.90;;;28.22;27.13;101911.41;5114414;28;20052;-12
2022/06/14 00:10:17;;;;;;;1.92;0.93;;;24.30;41.90;;;28.18;27.34;101904.53;5114505;28;20051;-13
2022/06/14 00:12:42;;;;;;;1.33;1.00;;;24.30;41.90;;;28.16;27.47;101899.28;5095653;28;20085;-13
2022/06/14 00:15:09;;;;;;;1.58;0.95;;;24.30;41.90;;;28.20;27.17;101914.22;5113726;28;20051;-13
2022/06/14 00:17:35;;;;;;;2.28;1.23;;;24.30;41.90;;;28.21;27.47;101915.06;5113851;28;20086;-12
2022/06/14 00:20:01;;;;;;;3.42;1.10;;;24.30;41.90;;;28.18;27.29;101909.91;5114148;28;20048;-13
2022/06/14 00:22:28;;;;;;;2.03;1.20;;;24.30;41.90;;;28.17;27.15;101900.16;5114156;28;20506;-13
2022/06/14 00:24:55;;;;;;;2.13;1.00;;;24.30;41.90;;;28.18;27.53;101908.06;5113070;28;20046;-13
2022/06/14 00:27:22;;;;;;;2.25;1.10;;;24.30;42.50;;;28.16;27.34;101904.66;5113899;28;20096;-12
2022/06/14 00:29:47;;;;;;;1.73;0.95;;;24.30;41.90;;;28.15;27.23;101902.94;5095070;28;20193;-13
2022/06/14 00:32:13;;;;;;;1.20;0.95;;;24.30;42.00;;;28.17;27.27;101901.00;5114613;28;20526;-13
2022/06/14 00:34:39;;;;;;;2.05;1.10;;;24.30;41.90;;;28.16;27.47;101915.41;5113941;28;20072;-13
2022/06/14 00:37:05;;;;;;;2.40;1.00;;;24.30;42.00;;;28.15;27.41;101913.72;5113898;28;20051;-13
2022/06/14 00:39:30;;;;;;;1.67;1.00;;;24.30;42.00;;;28.19;27.28;101925.09;5113735;28;20087;-13
2022/06/14 00:41:57;;;;;;;2.10;1.08;;;24.20;41.90;;;28.17;27.36;101922.50;5113797;28;20050;-12
2022/06/14 00:44:28;;;;;;;3.00;1.10;;;24.30;42.00;;;28.11;27.41;101914.91;5114141;28;20368;-13
2022/06/14 00:47:13;;;;;;;1.58;0.93;;;24.30;42.00;;;28.11;27.33;101912.22;5114082;28;20051;-13
2022/06/14 00:49:51;;;;;;;2.13;0.98;;;24.20;41.90;;;28.15;27.41;101912.81;5113732;28;20097;-13
2022/06/14 00:52:33;;;;;;;2.47;1.10;;;24.20;41.90;;;28.13;27.43;101904.88;5095452;28;20079;-13
2022/06/14 00:55:09;;;;;;;2.05;1.17;;;24.20;42.00;;;28.14;27.47;101906.59;5113674;28;20407;-12
2022/06/14 00:57:48;;;;;;;2.08;0.90;;;24.20;42.00;;;28.10;27.23;101897.06;5095436;28;20058;-13
2022/06/14 01:00:20;;;;;;;1.35;0.90;;;24.20;42.00;;;28.12;27.37;101894.25;5110911;28;20074;-13
2022/06/14 01:02:53;;;;;;;2.60;1.13;;;24.20;42.00;;;28.07;27.56;101879.34;5093871;28;20075;-13
2022/06/14 01:06:17;;;;;;;1.65;0.90;;;24.20;42.00;;;28.07;27.50;101898.16;5113138;28;20055;-13
2022/06/14 01:08:27;;;;;;;2.28;1.17;;;24.20;41.90;;;28.09;27.44;101898.88;5101269;28;20172;-12
2022/06/14 01:10:53;;;;;;;2.40;1.00;;;24.20;42.00;;;28.13;27.54;101910.25;5095595;28;20429;-12
2022/06/14 01:13:21;;;;;;;1.02;0.80;;;24.20;42.00;;;28.09;27.45;101898.88;5113265;28;20097;-13
2022/06/14 01:15:50;;;;;;;1.42;1.00;;;24.20;42.00;;;28.09;27.33;101903.41;5113729;28;20480;-13
2022/06/14 01:18:17;;;;;;;1.90;1.10;;;24.20;42.00;;;28.09;27.43;101901.56;5113278;28;20058;-12
2022/06/14 01:20:43;;;;;;;1.10;0.90;;;24.20;42.00;;;28.12;27.43;101899.63;5113143;28;20096;-13
2022/06/14 01:23:16;;;;;;;1.55;0.98;;;24.20;42.00;;;28.06;27.28;101892.88;5113293;28;20047;-13
2022/06/14 01:25:53;;;;;;;2.13;0.80;;;24.20;42.00;;;28.09;27.26;101903.41;5113617;28;20039;-13
2022/06/14 01:28:22;;;;;;;1.63;1.10;;;24.20;41.90;;;28.08;27.28;101901.69;5094937;28;20044;-13
2022/06/14 01:30:51;;;;;;;3.10;1.10;;;24.20;42.00;;;28.09;27.19;101904.25;5111820;28;20056;-13
2022/06/14 01:33:36;;;;;;;3.03;0.90;;;24.20;42.00;;;28.09;27.55;101906.09;5113070;28;20040;-13
2022/06/14 01:36:12;;;;;;;2.58;1.15;;;24.20;42.00;;;28.05;27.51;101900.09;5113211;28;20503;-13
2022/06/14 01:38:39;;;;;;;4.05;1.10;;;24.20;42.00;;;28.11;27.26;101904.16;5095040;28;20139;-12
2022/06/14 01:41:56;;;;;;;1.25;0.80;;;24.20;42.00;;;28.12;27.35;101902.31;5094872;28;20055;-13
2022/06/14 01:44:43;;;;;;;2.47;0.90;;;24.20;42.00;;;28.11;27.36;101901.47;5054941;28;20047;-13
2022/06/14 01:47:28;;;;;;;1.65;1.20;;;24.20;42.00;;;28.00;27.35;101883.47;5112915;28;20044;-13
2022/06/14 01:53:37;;;;;;;1.70;0.80;;;24.20;42.00;;;28.09;27.19;101898.03;5112208;28;20130;-12
2022/06/14 01:56:15;;;;;;;2.03;0.93;;;24.20;42.00;;;28.03;27.46;101893.13;5113242;28;20395;-13
2022/06/14 01:59:32;;;;;;;1.27;0.80;;;24.20;42.00;;;28.08;27.45;101899.88;5093422;28;20048;-12
2022/06/14 02:02:27;;;;;;;1.45;0.90;;;24.20;42.00;;;28.04;27.50;101903.75;5112719;28;20097;-12
2022/06/14 02:05:21;;;;;;;2.72;1.00;;;24.20;42.00;;;28.05;27.23;101905.47;5112683;28;20044;-13
2022/06/14 02:08:13;;;;;;;1.10;0.60;;;24.20;42.00;;;28.06;27.60;101903.63;5112210;28;20052;-13
2022/06/14 02:10:57;;;;;;;1.40;0.90;;;24.10;42.00;;;28.03;27.63;101910.13;5109396;28;20449;-13
2022/06/14 02:13:34;;;;;;;1.38;1.05;;;24.10;42.00;;;28.02;27.27;101903.03;5112591;28;20044;-13
2022/06/14 02:16:23;;;;;;;4.43;1.00;;;24.20;42.00;;;27.99;27.54;101899.72;5093964;28;20047;-13
2022/06/14 02:19:13;;;;;;;2.00;1.00;;;24.10;42.00;;;28.00;27.28;101906.78;5112440;28;20048;-12
2022/06/14 02:22:06;;;;;;;1.25;0.80;;;24.10;42.00;;;28.03;27.31;101912.81;5094194;28;20048;-12
2022/06/14 02:24:41;;;;;;;1.35;0.95;;;24.10;42.00;;;28.04;27.29;101909.13;5094516;28;20048;-13
2022/06/14 02:27:33;;;;;;;1.25;1.00;;;24.10;42.00;;;27.99;27.53;101897.88;5094113;28;20134;-12
2022/06/14 02:30:23;;;;;;;2.72;0.98;;;24.10;42.00;;;27.97;27.43;101897.13;5109270;28;20492;-13
2022/06/14 02:33:28;;;;;;;2.70;0.98;;;24.10;42.00;;;28.00;27.21;101896.91;5112170;28;20123;-13
2022/06/14 02:36:15;;;;;;;3.00;1.27;;;24.10;42.00;;;27.98;27.38;101900.69;5094501;28;20047;-13
2022/06/14 02:38:54;;;;;;;1.67;1.00;;;24.10;42.00;;;28.01;27.23;101900.44;5093134;28;20044;-13
2022/06/14 02:41:31;;;;;;;2.00;0.90;;;24.10;42.00;;;27.99;27.27;101892.50;5112317;28;20438;-13
2022/06/14 02:44:08;;;;;;;0.93;0.80;;;24.10;42.00;;;27.94;27.51;101892.00;5094294;28;20044;-12
2022/06/14 02:46:48;;;;;;;1.10;0.93;;;24.10;42.00;;;27.99;27.52;101899.72;5111373;28;20092;-13
2022/06/14 02:49:39;;;;;;;1.52;0.90;;;24.10;42.00;;;28.01;27.29;101895.06;5097402;28;20544;-13
2022/06/14 02:52:21;;;;;;;2.42;1.10;;;24.10;42.00;;;28.00;27.21;101891.53;5097453;28;20051;-12
2022/06/14 02:55:11;;;;;;;1.40;0.90;;;24.10;42.00;;;27.93;27.64;101886.72;5095283;28;20040;-13
2022/06/14 02:58:16;;;;;;;1.27;0.80;;;24.10;42.00;;;27.99;27.33;101905.09;5112271;28;20072;-13
2022/06/14 03:00:58;;;;;;;2.13;1.02;;;24.10;42.00;;;27.94;27.51;101908.13;5115609;28;20048;-13
2022/06/14 03:03:39;;;;;;;1.42;1.02;;;24.10;42.00;;;27.99;27.52;101929.28;5115760;28;20130;-13
2022/06/14 03:06:58;;;;;;;3.10;1.27;;;24.10;42.00;;;27.99;27.49;101914.00;5114337;28;20556;-13
2022/06/14 03:09:32;;;;;;;2.92;1.05;;;24.10;42.00;;;28.01;27.33;101928.19;4993093;28;20074;-13
2022/06/14 03:12:06;;;;;;;2.70;0.95;;;24.10;42.00;;;27.99;27.23;101929.28;4993220;28;20486;-13
2022/06/14 03:14:57;;;;;;;2.50;0.90;;;24.10;42.00;;;28.00;27.29;101928.28;4993187;28;20149;-13
2022/06/14 03:17:49;;;;;;;0.80;0.80;;;24.10;42.00;;;27.98;27.34;101917.66;4993072;28;20161;-13
2022/06/14 03:20:29;;;;;;;2.00;1.08;;;24.10;42.00;;;27.95;27.34;101912.53;5024217;28;20132;-13
2022/06/14 03:23:14;;;;;;;1.80;0.93;;;24.10;42.00;;;27.95;27.63;101911.66;5096910;28;20047;-13
2022/06/14 03:25:46;;;;;;;1.67;0.93;;;24.10;42.00;;;27.95;27.52;101903.59;5115170;28;20562;-13
2022/06/14 03:28:26;;;;;;;1.65;0.85;;;24.10;41.90;;;27.92;27.47;101901.97;5096794;28;20380;-13
2022/06/14 03:31:27;;;;;;;2.03;1.10;;;24.10;41.90;;;28.01;27.37;101917.44;5113858;28;20054;-12
2022/06/14 03:34:02;;;;;;;1.35;0.88;;;24.10;41.90;;;28.01;27.32;101909.34;5096582;28;20039;-13
2022/06/14 03:36:28;;;;;;;1.83;0.98;;;24.10;41.90;;;28.01;27.22;101916.56;5096661;28;20052;-13
2022/06/14 03:39:02;;;;;;;1.90;1.10;;;24.10;41.90;;;27.98;27.33;101911.44;5114912;28;20193;-13
2022/06/14 03:41:32;;;;;;;2.28;1.08;;;24.10;41.90;;;27.97;27.54;101915.97;5095593;28;20082;-13
2022/06/14 03:44:02;;;;;;;2.67;0.82;;;24.10;41.80;;;28.00;27.35;101914.84;5096572;28;20476;-13
2022/06/14 03:46:42;;;;;;;2.05;0.93;;;24.10;41.80;;;27.99;27.14;101915.84;5114608;28;20407;-14
2022/06/14 03:49:14;;;;;;;2.57;0.80;;;24.10;41.80;;;28.02;27.17;101912.94;5114717;28;20090;-13
2022/06/14 03:52:03;;;;;;;1.48;0.80;;;24.10;41.80;;;28.01;27.35;101912.06;5096596;28;20510;-13
2022/06/14 03:55:08;;;;;;;0.95;0.85;;;24.10;41.80;;;28.01;27.21;101912.06;5114933;28;20040;-13
2022/06/14 03:58:11;;;;;;;1.67;1.00;;;24.10;41.80;;;27.98;27.35;101906.06;5076541;28;20048;-12
2022/06/14 04:00:56;;;;;;;1.48;0.88;;;24.20;41.70;;;28.02;27.51;101905.72;5113311;28;20070;-13
2022/06/14 04:03:50;;;;;;;1.75;0.95;;;24.10;41.60;;;28.05;27.29;101913.56;5096309;28;20045;-13
2022/06/14 04:06:55;;;;;;;1.48;0.98;;;24.20;41.60;;;28.01;27.05;101903.97;5114287;28;20051;-12
2022/06/14 04:09:43;;;;;;;1.80;1.00;;;24.20;41.60;;;28.02;27.42;101903.03;5094828;28;20048;-12
2022/06/14 04:12:39;;;;;;;1.27;0.90;;;24.20;41.60;;;28.05;27.37;101909.97;5096136;28;20147;-13
2022/06/14 04:15:20;;;;;;;1.70;0.85;;;24.20;41.50;;;28.12;27.08;101913.94;5113880;28;20067;-13
2022/06/14 04:18:34;;;;;;;2.00;0.90;;;24.20;41.50;;;28.14;27.38;101914.66;5113984;28;20407;-13
2022/06/14 04:21:10;;;;;;;2.03;1.05;;;24.30;41.50;;;28.18;27.01;101912.59;5097776;28;20495;-12
2022/06/14 04:23:53;;;;;;;2.15;0.90;;;24.30;41.40;;;28.15;27.25;101904.75;5114177;28;20152;-13
2022/06/14 04:26:45;;;;;;;2.22;1.10;;;24.30;41.40;;;28.14;26.95;101895.84;5113108;28;20048;-13
2022/06/14 04:29:28;;;;;;;1.75;1.00;;;24.40;41.30;;;28.18;27.21;101902.69;5114010;28;20054;-13
2022/06/14 04:32:42;;;;;;;1.88;0.95;;;24.40;41.30;;;28.25;27.20;101909.34;5114082;28;20059;-13
2022/06/14 04:35:18;;;;;;;2.28;1.30;;;24.40;41.30;;;28.25;27.13;101905.75;5014619;28;20128;-13
2022/06/14 04:37:54;;;;;;;1.83;1.00;;;24.40;41.20;;;28.26;26.78;101911.03;5014687;28;20519;-13
2022/06/14 04:40:29;;;;;;;1.67;1.15;;;24.50;41.20;;;28.29;27.03;101915.34;5015291;28;20057;-13
2022/06/14 04:43:04;;;;;;;1.63;1.10;;;24.50;41.10;;;28.30;26.76;101905.41;5054336;28;20044;-12
2022/06/14 04:45:55;;;;;;;2.28;1.15;;;24.50;41.00;;;28.36;27.00;101900.41;5095874;28;20039;-13
2022/06/14 04:48:36;;;;;;;1.42;0.90;;;24.60;41.00;;;28.44;26.80;101907.91;5113680;28;20058;-13
2022/06/14 04:51:27;;;;;;;3.42;1.08;;;24.70;40.90;;;28.48;27.13;101901.28;5095402;28;20434;-13
2022/06/14 04:54:12;;;;;;;2.25;1.20;;;24.80;40.80;;;28.56;26.95;101909.66;5095477;28;20039;-12
2022/06/14 04:56:47;;;;;;;1.98;1.10;;;24.90;40.70;;;28.60;26.76;101910.28;5095138;28;20043;-13
2022/06/14 04:59:46;;;;;;;2.35;1.40;;;25.00;40.60;;;28.70;26.77;101924.75;5095660;28;20047;-13
2022/06/14 05:02:42;;;;;;;3.65;1.25;;;25.00;40.50;;;28.73;26.55;101916.41;5112386;28;20044;-13
2022/06/14 05:05:19;;;;;;;2.15;1.15;;;25.00;40.50;;;28.76;26.65;101918.00;5094937;28;20059;-13
2022/06/14 05:07:52;;;;;;;1.10;1.00;;;25.00;40.40;;;28.77;26.74;101914.34;5113328;28;20051;-13
2022/06/14 05:10:39;;;;;;;4.90;1.30;;;25.00;40.40;;;28.75;26.77;101917.16;5059688;28;20454;-13
2022/06/14 05:13:08;;;;;;;3.55;1.42;;;25.00;40.40;;;28.79;26.66;101924.00;5113319;28;20130;-13
2022/06/14 05:15:53;;;;;;;2.47;1.15;;;25.00;40.40;;;28.77;26.66;101917.03;5113394;28;20047;-12
2022/06/14 05:18:32;;;;;;;4.47;1.30;;;25.10;40.50;;;28.81;26.56;101924.72;5109023;28;20056;-13
2022/06/14 05:21:08;;;;;;;1.20;0.93;;;25.10;40.40;;;28.81;26.40;101921.19;5113901;28;20043;-13
2022/06/14 05:23:48;;;;;;;2.65;1.30;;;25.00;40.40;;;28.85;26.58;101922.66;5113288;28;20514;-13
2022/06/14 05:26:57;;;;;;;1.88;1.00;;;25.00;40.40;;;28.83;26.34;101924.63;5095311;28;20062;-13
2022/06/14 05:29:48;;;;;;;2.38;1.20;;;25.00;40.40;;;28.86;26.37;101924.38;5094700;28;20406;-13
2022/06/14 05:32:52;;;;;;;3.22;1.50;;;25.00;40.50;;;28.83;26.50;101920.09;5094911;28;20097;-13
2022/06/14 05:35:35;;;;;;;2.00;1.10;;;25.00;40.60;;;28.81;26.42;101935.50;5094401;28;20184;-12
2022/06/14 05:38:55;;;;;;;1.70;1.40;;;24.90;40.60;;;28.78;26.36;101933.03;5093884;28;20059;-13
2022/06/14 05:41:42;;;;;;;3.20;1.38;;;24.90;40.70;;;28.79;26.31;101940.16;5112000;28;20376;-13
2022/06/14 05:44:25;;;;;;;1.75;0.95;;;24.90;40.70;;;28.74;26.35;101939.66;5095058;28;20046;-13
2022/06/14 05:46:58;;;;;;;2.95;1.15;;;24.90;40.80;;;28.75;26.47;101946.78;5107639;28;20066;-13
2022/06/14 05:49:29;;;;;;;3.95;1.30;;;24.90;40.90;;;28.73;26.75;101943.31;5108406;28;20048;-13
2022/06/14 05:52:10;;;;;;;2.55;1.33;;;24.80;40.80;;;28.73;26.63;101950.53;5093310;28;20074;-12
2022/06/14 05:55:03;;;;;;;2.20;1.20;;;24.80;40.90;;;28.68;26.75;101945.50;5094501;28;20109;-13
2022/06/14 05:57:41;;;;;;;1.77;1.02;;;24.80;41.00;;;28.70;26.48;101957.03;5111432;28;20069;-13
2022/06/14 06:00:43;;;;;;;1.73;1.20;;;24.70;40.90;;;28.68;26.68;101963.50;5112663;28;20051;-12
2022/06/14 06:03:20;;;;;;;1.88;1.05;;;24.70;41.00;;;28.66;26.68;101966.31;5088042;28;20039;-12
2022/06/14 06:06:14;;;;;;;2.03;1.10;;;24.70;41.00;;;28.64;26.62;101962.91;5112852;28;20039;-12
2022/06/14 06:09:05;;;;;;;2.95;1.33;;;24.70;41.00;;;28.63;26.61;101962.03;5094616;28;20047;-13
2022/06/14 06:11:40;;;;;;;3.13;1.30;;;24.70;41.10;;;28.62;26.51;101960.31;5112251;28;20052;-13
2022/06/14 06:14:32;;;;;;;1.85;1.10;;;24.70;41.10;;;28.57;26.43;101954.44;5094364;28;20050;-13
2022/06/14 06:17:06;;;;;;;1.67;1.20;;;24.60;41.00;;;28.54;26.67;101959.19;5109712;28;20044;-13
2022/06/14 06:20:13;;;;;;;2.75;1.35;;;24.60;41.10;;;28.53;26.88;101957.44;5092951;28;20480;-13
2022/06/14 06:22:59;;;;;;;3.17;1.13;;;24.60;41.10;;;28.52;26.57;101947.66;5114126;28;20047;-13
2022/06/14 06:25:32;;;;;;;2.53;1.30;;;24.60;41.10;;;28.55;26.88;101956.38;5097370;28;20134;-13
2022/06/14 06:28:05;;;;;;;2.92;1.20;;;24.70;41.10;;;28.58;26.79;101966.06;5114140;28;20051;-13
2022/06/14 06:30:40;;;;;;;3.88;1.13;;;24.70;41.20;;;28.59;26.75;101965.94;5097486;28;20134;-13
2022/06/14 06:33:10;;;;;;;3.33;1.35;;;24.70;41.00;;;28.61;26.52;101963.13;5115821;28;20052;-13
2022/06/14 06:36:06;;;;;;;1.93;1.00;;;24.70;40.90;;;28.63;26.59;101964.75;5098002;28;20041;-13
2022/06/14 06:38:36;;;;;;;2.70;1.23;;;24.80;40.90;;;28.68;26.53;101968.88;5097410;28;20311;-13
2022/06/14 06:44:06;;;;;;;2.63;1.40;;;24.80;40.90;;;28.67;26.77;101967.16;5100349;28;20043;-13
2022/06/14 06:46:38;;;;;;;1.47;1.10;;;24.80;40.80;;;28.65;26.69;101967.28;5097293;28;20127;-13
2022/06/14 06:49:08;;;;;;;4.00;1.45;;;24.80;40.80;;;28.72;26.78;101983.81;5095386;28;20468;-13
2022/06/14 06:51:50;;;;;;;4.57;1.92;;;24.90;41.00;;;28.66;26.85;101971.69;5097136;28;20050;-13
2022/06/14 06:54:27;;;;;;;6.03;1.40;;;24.90;41.20;;;28.65;26.96;101978.03;5114305;28;20055;-13
2022/06/14 06:56:57;;;;;;;3.53;1.77;;;24.90;41.30;;;28.76;27.26;101985.28;5115781;28;20058;-13
2022/06/14 06:59:32;;;;;;;6.50;1.77;;;25.00;42.10;;;28.76;27.20;101978.06;5114144;28;20036;-13
2022/06/14 07:02:06;;;;;;;6.22;1.75;;;25.00;41.90;;;28.76;27.04;101971.84;5097495;28;20440;-13
2022/06/14 07:07:49;;;;;;;6.22;2.35;;;25.10;42.00;;;28.88;27.11;101978.94;5100029;28;20043;-13
2022/06/14 07:10:27;;;;;;;6.07;2.00;;;25.20;42.00;;;28.98;26.99;101988.00;5113739;28;20108;-13
2022/06/14 07:13:10;;;;;;;2.92;1.80;;;25.20;41.90;;;29.01;27.09;101982.38;5114858;28;20051;-13
2022/06/14 07:15:44;;;;;;;11.07;2.17;;;25.30;41.70;;;29.03;27.36;101979.56;5112216;28;20502;-13
2022/06/14 07:18:20;;;;;;;5.82;1.80;;;25.30;41.60;;;29.07;27.22;101972.09;5096754;28;20054;-14
2022/06/14 07:21:15;;;;;;;5.55;1.90;;;25.40;41.50;;;29.09;26.97;101968.31;5115330;28;20143;-13
2022/06/14 07:23:57;;;;;;;5.68;2.08;;;25.40;42.00;;;29.11;26.73;101976.28;5113759;28;20055;-13
2022/06/14 07:26:34;;;;;;;4.95;1.92;;;25.40;41.40;;;29.16;27.02;101979.47;5097103;28;20043;-13
2022/06/14 07:29:19;;;;;;;3.97;1.77;;;25.40;41.20;;;29.25;26.83;101984.13;5096196;28;20073;-13
2022/06/14 07:31:59;;;;;;;5.90;1.92;;;25.50;41.00;;;29.25;26.81;101967.97;5095840;28;20059;-13
2022/06/14 07:34:27;;;;;;;7.07;2.10;;;25.60;40.90;;;29.31;26.67;101972.88;5113035;28;20403;-13
2022/06/14 07:37:34;;;;;;;6.57;2.00;;;25.50;40.90;;;29.26;26.67;101975.06;5095376;28;20380;-13
2022/06/14 07:40:30;;;;;;;4.95;1.85;;;25.40;41.00;;;29.25;26.81;101972.50;5095472;28;20055;-13
2022/06/14 07:43:26;;;;;;;9.55;2.42;;;25.40;41.60;;;29.25;26.56;101992.22;5096119;28;20066;-13
2022/06/14 07:45:54;;;;;;;8.35;2.05;;;25.40;41.00;;;29.22;26.63;101976.31;5096505;28;20483;-13
2022/06/14 07:48:39;;;;;;;7.22;2.17;;;25.40;41.10;;;29.17;26.82;101973.13;5096264;28;20047;-13
2022/06/14 07:51:16;;;;;;;6.30;2.20;;;25.40;41.10;;;29.17;26.64;101982.06;5113119;28;20093;-12
2022/06/14 07:54:01;;;;;;;4.18;2.03;;;25.30;41.10;;;29.24;26.69;101984.28;5096226;28;20098;-12
2022/06/14 07:57:00;;;;;;;5.63;2.00;;;25.30;41.10;;;29.26;26.75;101987.69;5114380;28;20483;-13
2022/06/14 07:59:40;;;;;;;4.88;1.77;;;25.40;41.10;;;29.26;26.70;101980.47;5096092;28;20052;-12
2022/06/14 08:02:37;;;;;;;7.82;2.40;;;25.40;40.90;;;29.25;26.53;101980.59;5095468;28;20051;-13
2022/06/14 08:05:11;;;;;;;5.15;1.83;;;25.40;40.90;;;29.29;26.65;101992.84;5094210;28;20050;-13
2022/06/14 08:07:39;;;;;;;4.97;2.00;;;25.40;41.00;;;29.25;26.47;101989.50;5113872;28;20043;-13
2022/06/14 08:10:17;;;;;;;2.97;1.67;;;25.30;41.00;;;29.23;26.34;101986.09;5095902;28;20465;-13
2022/06/14 08:13:00;;;;;;;4.60;1.85;;;25.30;41.10;;;29.24;26.40;101990.50;5114041;28;20047;-13
2022/06/14 08:15:34;;;;;;;5.10;1.52;;;25.30;41.00;;;29.21;26.33;101979.13;5110112;28;20040;-13
2022/06/14 08:18:14;;;;;;;6.05;2.78;;;25.30;41.00;;;29.23;26.69;101985.25;5109799;28;20480;-13
2022/06/14 08:20:47;;;;;;;6.33;2.20;;;25.40;40.90;;;29.32;26.48;101987.19;5113769;28;20055;-13
2022/06/14 08:23:31;;;;;;;7.32;2.17;;;25.40;40.80;;;29.31;26.38;101991.72;5093838;28;20093;-13
2022/06/14 08:26:24;;;;;;;3.20;1.73;;;25.50;40.70;;;29.28;26.49;101978.50;5113872;28;20052;-13
2022/06/14 08:29:20;;;;;;;3.97;1.65;;;25.40;40.80;;;29.26;26.47;101980.47;5077036;28;20040;-13
2022/06/14 08:31:59;;;;;;;3.45;1.70;;;25.40;40.90;;;29.24;26.68;101981.59;5095473;28;20043;-13
2022/06/14 08:34:34;;;;;;;7.55;2.13;;;25.30;40.90;;;29.26;26.53;101995.78;5095254;28;20043;-13
2022/06/14 08:37:12;;;;;;;6.05;1.92;;;25.30;40.90;;;29.21;26.34;101992.59;5094318;28;20044;-13
2022/06/14 08:39:46;;;;;;;6.50;1.83;;;25.30;41.50;;;29.21;26.34;101988.06;5113808;28;20373;-13
2022/06/14 08:42:27;;;;;;;7.78;1.77;;;25.30;40.90;;;29.25;26.48;101994.06;5114086;28;20486;-13
2022/06/14 08:45:06;;;;;;;6.38;1.88;;;25.40;40.90;;;29.25;26.42;101985.97;5112709;28;20431;-13
2022/06/14 08:48:08;;;;;;;5.50;2.47;;;25.40;40.90;;;29.24;26.40;101973.50;5113408;28;20048;-13
2022/06/14 08:51:09;;;;;;;6.07;1.85;;;25.30;40.80;;;29.25;26.58;101983.28;5078334;28;20445;-13
2022/06/14 08:54:17;;;;;;;5.60;1.80;;;25.20;40.80;;;29.21;26.41;101977.28;5113597;28;20047;-13
2022/06/14 08:57:27;;;;;;;2.97;1.67;;;25.20;40.90;;;29.14;26.39;101974.19;5112218;28;20043;-13
2022/06/14 09:00:50;;;;;;;4.18;2.10;;;25.20;40.90;;;29.18;26.45;101975.69;5113509;28;20420;-13
2022/06/14 09:04:22;;;;;;;5.95;1.80;;;25.20;40.90;;;29.18;26.34;101981.06;5113215;28;20139;-13
2022/06/14 09:07:17;;;;;;;4.53;1.98;;;25.20;40.90;;;29.17;26.34;101990.16;5030349;28;20524;-13
2022/06/14 09:10:04;;;;;;;5.53;1.67;;;25.20;40.80;;;29.16;26.38;101983.00;5094240;28;20040;-13
2022/06/14 09:13:03;;;;;;;4.88;1.85;;;25.20;40.80;;;29.10;26.45;101972.75;5112629;28;20047;-13
2022/06/14 09:16:11;;;;;;;4.57;1.70;;;25.20;40.80;;;29.18;26.55;101977.53;5093597;28;20059;-14
2022/06/14 09:18:55;;;;;;;4.07;1.70;;;25.20;40.80;;;29.15;26.55;101973.22;5092776;28;20132;-13
2022/06/14 09:22:03;;;;;;;6.50;1.83;;;25.20;40.70;;;29.17;26.50;101971.28;5110918;28;20099;-14
2022/06/14 09:25:09;;;;;;;6.60;1.50;;;25.20;40.80;;;29.15;26.47;101969.66;5110880;28;20071;-14
2022/06/14 09:27:58;;;;;;;4.57;2.13;;;25.30;40.80;;;29.16;26.38;101980.31;5111598;28;20048;-13
2022/06/14 09:31:09;;;;;;;3.50;1.48;;;25.30;40.80;;;29.15;26.39;101970.53;5112279;28;20051;-13
2022/06/14 09:33:52;;;;;;;3.60;1.65;;;25.30;40.80;;;29.19;26.51;101979.25;5111629;28;20078;-13
2022/06/14 09:36:57;;;;;;;4.00;1.65;;;25.30;40.70;;;29.15;26.27;101970.53;5094327;28;20055;-13
2022/06/14 09:39:50;;;;;;;7.75;1.85;;;25.30;40.70;;;29.13;26.44;101977.00;5112162;28;20082;-15
2022/06/14 09:43:17;;;;;;;6.32;2.30;;;25.30;40.60;;;29.21;26.32;101982.66;5112860;28;20051;-14
2022/06/14 09:45:58;;;;;;;4.75;1.98;;;25.30;40.60;;;29.19;26.18;101985.50;5112986;28;20071;-13
2022/06/14 09:49:04;;;;;;;3.97;1.57;;;25.30;40.60;;;29.24;26.41;101978.91;5094323;28;20055;-13
2022/06/14 09:52:16;;;;;;;4.35;1.65;;;25.30;40.60;;;29.19;26.09;101973.88;5013178;28;20577;-13
2022/06/14 09:55:18;;;;;;;5.47;1.58;;;25.30;40.60;;;29.19;26.45;101979.25;5112579;28;20062;-13
2022/06/14 09:58:19;;;;;;;5.93;1.92;;;25.30;40.70;;;29.18;26.17;101974.84;5114772;28;20055;-13
2022/06/14 10:01:37;;;;;;;7.05;2.17;;;25.30;40.70;;;29.21;26.08;101977.28;5116171;28;20047;-13
2022/06/14 10:04:39;;;;;;;4.50;1.70;;;25.20;40.60;;;29.16;26.14;101963.31;5016763;28;20533;-13
2022/06/14 10:07:46;;;;;;;4.47;1.80;;;25.20;40.60;;;29.18;26.13;101981.06;5110141;28;20056;-13
2022/06/14 10:10:38;;;;;;;4.18;1.63;;;25.30;40.70;;;29.18;26.34;101989.16;5115541;28;20044;-13
2022/06/14 10:13:28;;;;;;;5.45;1.80;;;25.30;40.70;;;29.18;26.35;101991.00;5096978;28;20071;-13
2022/06/14 10:16:34;;;;;;;3.58;1.45;;;25.20;40.60;;;29.19;26.26;101988.19;5115508;28;20048;-13
2022/06/14 10:19:43;;;;;;;3.17;1.40;;;25.30;40.70;;;29.17;26.18;101987.44;5115732;28;20075;-13
2022/06/14 10:22:46;;;;;;;4.25;1.80;;;25.20;40.70;;;29.20;26.36;101994.41;5096529;28;20143;-12
2022/06/14 10:28:11;;;;;;;4.07;2.03;;;25.20;40.70;;;29.15;26.43;101997.47;5115040;28;20047;-13
2022/06/14 10:28:59;;;;;;;5.55;1.63;;;25.20;40.60;;;29.11;26.48;101979.81;5100574;28;20047;-12
2022/06/14 10:32:04;;;;;;;3.75;1.58;;;25.20;40.70;;;29.13;26.33;101994.00;5114120;28;20654;-13
2022/06/14 10:34:41;;;;;;;4.97;1.65;;;25.20;40.70;;;29.11;26.29;101989.75;5115223;28;20067;-12
2022/06/14 10:37:44;;;;;;;6.38;1.70;;;25.20;40.70;;;29.11;26.32;101989.75;5112980;28;20044;-12
2022/06/14 10:40:41;;;;;;;5.47;2.42;;;25.20;40.60;;;29.13;26.10;101995.84;5113175;28;20056;-13
2022/06/14 10:43:21;;;;;;;3.83;2.00;;;25.20;40.60;;;29.15;26.38;101996.59;5115361;28;20051;-12
2022/06/14 10:45:55;;;;;;;7.18;1.98;;;25.20;40.60;;;29.13;26.22;101979.69;5097062;28;20130;-12
2022/06/14 10:48:24;;;;;;;5.70;1.75;;;25.20;40.60;;;29.17;26.40;101992.84;5115835;28;20043;-13
2022/06/14 10:51:31;;;;;;;5.80;1.95;;;25.20;40.60;;;29.16;26.26;101999.16;5115352;28;20044;-12
2022/06/14 10:54:42;;;;;;;2.58;1.52;;;25.20;40.50;;;29.14;26.28;101994.91;5115204;28;20050;-12
2022/06/14 10:57:18;;;;;;;6.32;1.67;;;25.20;40.60;;;29.18;26.05;101991.00;5012348;28;20061;-12
2022/06/14 11:00:09;;;;;;;3.70;1.67;;;25.20;40.50;;;29.14;26.22;101997.59;5101074;28;20055;-12
2022/06/14 11:03:04;;;;;;;3.50;1.58;;;25.20;40.50;;;29.16;26.35;102001.00;5111762;28;20412;-12
2022/06/14 11:05:46;;;;;;;5.25;2.05;;;25.20;40.50;;;29.08;26.31;101984.59;5114888;28;20134;-12
2022/06/14 11:08:21;;;;;;;2.92;1.90;;;25.20;40.50;;;29.10;26.22;101986.22;5095832;28;20384;-12
2022/06/14 11:11:35;;;;;;;5.07;1.50;;;25.20;40.50;;;29.09;26.33;101989.88;5113653;28;20051;-12
2022/06/14 11:14:12;;;;;;;5.28;1.85;;;25.20;40.50;;;29.13;26.33;101993.16;5114786;28;20143;-13
2022/06/14 11:17:07;;;;;;;4.93;1.98;;;25.20;40.60;;;29.12;26.24;101986.94;5096655;28;20127;-13
2022/06/14 11:20:12;;;;;;;6.32;2.10;;;25.20;40.50;;;29.14;26.25;101978.72;5095672;28;20072;-13
2022/06/14 11:23:11;;;;;;;4.35;1.90;;;25.20;40.50;;;29.11;26.22;101984.34;5114935;28;20134;-13
2022/06/14 11:25:47;;;;;;;4.70;1.95;;;25.20;40.50;;;29.08;26.28;101980.06;5096308;28;20139;-13
2022/06/14 11:28:41;;;;;;;3.67;1.67;;;25.20;40.50;;;29.09;26.13;101972.84;5115047;28;20131;-13
2022/06/14 11:31:47;;;;;;;3.70;1.88;;;25.20;40.40;;;29.15;26.30;101980.44;5113542;28;20484;-13
2022/06/14 11:34:31;;;;;;;3.90;1.67;;;25.20;40.40;;;29.14;26.28;101984.97;5096584;28;20048;-13
2022/06/14 11:37:42;;;;;;;4.10;1.95;;;25.20;40.40;;;29.11;25.94;101970.91;5114697;28;20059;-14
2022/06/14 11:40:30;;;;;;;6.47;2.33;;;25.20;40.40;;;29.09;26.28;101971.00;5095792;28;20096;-13